Mora, MN

11:37 AM CST on January 28, 2015 (GMT -0600)
Mora Municipal | Change Station
CLOSE
Current Station
Airport
Location: Mora,
Elevation: 1010 ft
Nearby Weather Stations

Elev 1010 ft 45.89 °N, 93.27 °W | Updated 32 minutes ago

Overcast
Overcast
27 °F
Feels Like 17 °F
N
10
Wind Variable Wind from SSE
Gusts 16 mph

Today
High -- | Low -- °F
--% Chance of Precip.
Yesterday
High -- | Low -- °F
Precip. -- in
7:39 AM 5:12 PM
Waxing Gibbous, 66% visible
Pressure 29.95 in
Visibility 5.0 miles
Clouds Overcast 800 ft
Windchill 17 °F
Dew Point 23 °F
Humidity 86%
Rainfall 0.00 in
Snow Depth Not available.
UV 1 out of 12
Pollen .10 out of 12
Air Quality Not available.
Flu Activity Not available.
METAR KJMR 281705Z AUTO 16009G14KT 5SM OVC008 M03/M05 A2995 RMK AO2

More Conditions Fewer Conditions

Pressure 29.95 in
Visibility 5.0 miles
Clouds Overcast 800 ft
Windchill 17 °F
Dew Point 23 °F
Humidity 86%
Rainfall 0.00 in
Snow Depth Not available.
UV 1 out of 12
Pollen .10 out of 12
Air Quality Not available.
Flu Activity Not available.
METAR KJMR 281705Z AUTO 16009G14KT 5SM OVC008 M03/M05 A2995 RMK AO2

More Conditions Fewer Conditions

10-Day Weather Forecast

Almanac

Astronomy

Jan. 28, 2015 Rise Set
Actual Time
Civil Twilight
Nautical Twilight
Astronomical Twilight
Moon
Length of Visible Light
Length of Day
Tomorrow will be .
, % of the Moon is Illuminated

Today's Extremes

State Highs State Lows

Community

WunderPhotos

Upload Photos

1,791,214 photos uploaded!

WunderBlogs® & News

Nearby

Air Quality

  Air Quality AQ Index Pollutant
Not available.

Snow Depth

Station Depth Elevation

Earthquake Activity

City Distance Mag. Time & Date
Minimum magnitude displayed is 2.5.

Coastal Water Temperatures

Place Temperature

Nearby Weather Stations